Marble, Pennsylvania
Current Conditions -  °F | °C
As of 12:15 AM on Tuesday 23 Dec 2014 (Local Time) from KFKL Reporting Station
Overcast Overcast  
Wind Chill: -4°   Ceiling: 11000
Heat Index:   Visibility: 10mi
Dew Point: -2°   Wind: 14mph
Humidity: 81%   Direction: 110°ESE
Pressure: 29.96"   Gusts: 20mph
Location:  41.34°N, 79.44°W
Report Text: KFKL 230515Z AUTO 11012G17KT 10SM OVC110 01/M02 A2996 RMK AO1
Loading
Personal Weather Stations






























Interactive Weather Map New forecast layout! Learn more

10-Day Weather Forecast

Advertisements
Track Severe Weather on mobile